sensor_id;sensor_type;location;lat;lon;timestamp;P1;durP1;ratioP1;P2;durP2;ratioP2
46613;SDS011;32338;50.430;6.806;2023-08-31T00:01:56;9.20;;;6.20;;
46613;SDS011;32338;50.430;6.806;2023-08-31T00:04:24;7.88;;;6.63;;
46613;SDS011;32338;50.430;6.806;2023-08-31T00:06:51;9.40;;;6.32;;
46613;SDS011;32338;50.430;6.806;2023-08-31T00:09:17;9.02;;;6.15;;
46613;SDS011;32338;50.430;6.806;2023-08-31T00:11:44;7.43;;;6.45;;
46613;SDS011;32338;50.430;6.806;2023-08-31T00:14:10;9.68;;;6.40;;
46613;SDS011;32338;50.430;6.806;2023-08-31T00:16:38;7.95;;;5.97;;
46613;SDS011;32338;50.430;6.806;2023-08-31T00:19:05;10.48;;;6.75;;
46613;SDS011;32338;50.430;6.806;2023-08-31T00:21:32;8.32;;;7.28;;
46613;SDS011;32338;50.430;6.806;2023-08-31T00:23:58;10.77;;;7.50;;
46613;SDS011;32338;50.430;6.806;2023-08-31T00:26:25;11.25;;;7.00;;
46613;SDS011;32338;50.430;6.806;2023-08-31T00:28:52;9.65;;;7.15;;
46613;SDS011;32338;50.430;6.806;2023-08-31T00:31:18;9.02;;;6.93;;
46613;SDS011;32338;50.430;6.806;2023-08-31T00:33:48;7.72;;;6.97;;
46613;SDS011;32338;50.430;6.806;2023-08-31T00:36:14;8.68;;;7.35;;
46613;SDS011;32338;50.430;6.806;2023-08-31T00:38:43;12.35;;;7.40;;
46613;SDS011;32338;50.430;6.806;2023-08-31T00:41:09;7.75;;;6.65;;
46613;SDS011;32338;50.430;6.806;2023-08-31T00:43:36;12.75;;;7.20;;
46613;SDS011;32338;50.430;6.806;2023-08-31T00:46:03;8.32;;;7.45;;
46613;SDS011;32338;50.430;6.806;2023-08-31T00:48:29;8.90;;;7.20;;
46613;SDS011;32338;50.430;6.806;2023-08-31T00:50:58;8.90;;;7.32;;
46613;SDS011;32338;50.430;6.806;2023-08-31T00:53:26;10.93;;;7.15;;
46613;SDS011;32338;50.430;6.806;2023-08-31T00:55:53;16.33;;;7.50;;
46613;SDS011;32338;50.430;6.806;2023-08-31T00:58:19;9.60;;;7.03;;
46613;SDS011;32338;50.430;6.806;2023-08-31T01:00:49;13.23;;;7.20;;
46613;SDS011;32338;50.430;6.806;2023-08-31T01:03:26;7.95;;;7.10;;
46613;SDS011;32338;50.430;6.806;2023-08-31T01:06:17;10.27;;;7.05;;
46613;SDS011;32338;50.430;6.806;2023-08-31T01:08:56;7.90;;;7.20;;
46613;SDS011;32338;50.430;6.806;2023-08-31T01:11:29;12.43;;;7.97;;
46613;SDS011;32338;50.430;6.806;2023-08-31T01:14:02;8.07;;;7.30;;
46613;SDS011;32338;50.430;6.806;2023-08-31T01:16:37;8.27;;;7.50;;
46613;SDS011;32338;50.430;6.806;2023-08-31T01:19:10;7.60;;;6.80;;
46613;SDS011;32338;50.430;6.806;2023-08-31T01:21:54;11.68;;;7.78;;
46613;SDS011;32338;50.430;6.806;2023-08-31T01:24:25;8.75;;;7.78;;
46613;SDS011;32338;50.430;6.806;2023-08-31T01:26:52;10.32;;;7.72;;
46613;SDS011;32338;50.430;6.806;2023-08-31T01:29:19;10.85;;;7.40;;
46613;SDS011;32338;50.430;6.806;2023-08-31T01:31:46;7.60;;;6.97;;
46613;SDS011;32338;50.430;6.806;2023-08-31T01:34:13;8.73;;;7.47;;
46613;SDS011;32338;50.430;6.806;2023-08-31T01:36:41;7.80;;;6.85;;
46613;SDS011;32338;50.430;6.806;2023-08-31T01:39:14;8.32;;;7.35;;
46613;SDS011;32338;50.430;6.806;2023-08-31T01:41:50;8.02;;;7.30;;
46613;SDS011;32338;50.430;6.806;2023-08-31T01:44:20;8.55;;;7.65;;
46613;SDS011;32338;50.430;6.806;2023-08-31T01:46:52;7.40;;;6.78;;
46613;SDS011;32338;50.430;6.806;2023-08-31T01:49:19;10.10;;;7.82;;
46613;SDS011;32338;50.430;6.806;2023-08-31T01:51:46;8.23;;;7.55;;
46613;SDS011;32338;50.430;6.806;2023-08-31T01:54:12;10.57;;;7.68;;
46613;SDS011;32338;50.430;6.806;2023-08-31T01:56:39;13.55;;;7.88;;
46613;SDS011;32338;50.430;6.806;2023-08-31T01:59:07;10.57;;;8.32;;
46613;SDS011;32338;50.430;6.806;2023-08-31T02:01:33;11.00;;;8.13;;
46613;SDS011;32338;50.430;6.806;2023-08-31T02:04:01;9.73;;;8.05;;
46613;SDS011;32338;50.430;6.806;2023-08-31T02:06:27;9.38;;;8.30;;
46613;SDS011;32338;50.430;6.806;2023-08-31T02:08:54;8.98;;;7.57;;
46613;SDS011;32338;50.430;6.806;2023-08-31T02:11:20;8.52;;;6.88;;
46613;SDS011;32338;50.430;6.806;2023-08-31T02:13:47;9.73;;;7.43;;
46613;SDS011;32338;50.430;6.806;2023-08-31T02:16:15;10.57;;;7.68;;
46613;SDS011;32338;50.430;6.806;2023-08-31T02:18:42;8.57;;;7.10;;
46613;SDS011;32338;50.430;6.806;2023-08-31T02:21:08;8.00;;;6.78;;
46613;SDS011;32338;50.430;6.806;2023-08-31T02:23:35;7.90;;;6.53;;
46613;SDS011;32338;50.430;6.806;2023-08-31T02:26:01;8.10;;;6.75;;
46613;SDS011;32338;50.430;6.806;2023-08-31T02:28:28;8.25;;;6.80;;
46613;SDS011;32338;50.430;6.806;2023-08-31T02:30:58;10.93;;;6.90;;
46613;SDS011;32338;50.430;6.806;2023-08-31T02:33:27;10.95;;;6.55;;
46613;SDS011;32338;50.430;6.806;2023-08-31T02:35:53;11.27;;;7.05;;
46613;SDS011;32338;50.430;6.806;2023-08-31T02:38:20;8.30;;;6.85;;
46613;SDS011;32338;50.430;6.806;2023-08-31T02:40:47;7.20;;;6.50;;
46613;SDS011;32338;50.430;6.806;2023-08-31T02:43:14;8.38;;;6.28;;
46613;SDS011;32338;50.430;6.806;2023-08-31T02:45:40;6.60;;;5.93;;
46613;SDS011;32338;50.430;6.806;2023-08-31T02:48:07;8.05;;;5.93;;
46613;SDS011;32338;50.430;6.806;2023-08-31T02:50:35;6.97;;;6.28;;
46613;SDS011;32338;50.430;6.806;2023-08-31T02:53:02;13.13;;;6.43;;
46613;SDS011;32338;50.430;6.806;2023-08-31T02:55:31;6.72;;;6.07;;
46613;SDS011;32338;50.430;6.806;2023-08-31T02:57:58;7.50;;;5.80;;
46613;SDS011;32338;50.430;6.806;2023-08-31T03:00:25;6.53;;;5.85;;
46613;SDS011;32338;50.430;6.806;2023-08-31T03:02:52;8.77;;;5.75;;
46613;SDS011;32338;50.430;6.806;2023-08-31T03:05:18;9.32;;;5.82;;
46613;SDS011;32338;50.430;6.806;2023-08-31T03:07:47;7.53;;;5.30;;
46613;SDS011;32338;50.430;6.806;2023-08-31T03:10:14;7.60;;;5.82;;
46613;SDS011;32338;50.430;6.806;2023-08-31T03:12:41;7.43;;;5.60;;
46613;SDS011;32338;50.430;6.806;2023-08-31T03:15:07;8.60;;;5.22;;
46613;SDS011;32338;50.430;6.806;2023-08-31T03:17:34;6.70;;;5.03;;
46613;SDS011;32338;50.430;6.806;2023-08-31T03:20:01;8.10;;;5.10;;
46613;SDS011;32338;50.430;6.806;2023-08-31T03:22:29;9.30;;;4.93;;
46613;SDS011;32338;50.430;6.806;2023-08-31T03:24:57;11.88;;;5.93;;
46613;SDS011;32338;50.430;6.806;2023-08-31T03:27:24;7.93;;;4.90;;
46613;SDS011;32338;50.430;6.806;2023-08-31T03:29:51;5.38;;;4.82;;
46613;SDS011;32338;50.430;6.806;2023-08-31T03:32:18;11.20;;;5.25;;
46613;SDS011;32338;50.430;6.806;2023-08-31T03:34:45;7.07;;;4.72;;
46613;SDS011;32338;50.430;6.806;2023-08-31T03:37:12;5.68;;;4.35;;
46613;SDS011;32338;50.430;6.806;2023-08-31T03:39:38;4.90;;;4.50;;
46613;SDS011;32338;50.430;6.806;2023-08-31T03:42:07;5.97;;;4.57;;
46613;SDS011;32338;50.430;6.806;2023-08-31T03:44:34;10.27;;;5.07;;
46613;SDS011;32338;50.430;6.806;2023-08-31T03:47:02;6.22;;;5.32;;
46613;SDS011;32338;50.430;6.806;2023-08-31T03:49:29;6.60;;;4.85;;
46613;SDS011;32338;50.430;6.806;2023-08-31T03:51:56;5.88;;;4.68;;
46613;SDS011;32338;50.430;6.806;2023-08-31T03:54:23;6.20;;;4.60;;
46613;SDS011;32338;50.430;6.806;2023-08-31T03:56:50;6.32;;;5.10;;
46613;SDS011;32338;50.430;6.806;2023-08-31T03:59:18;5.28;;;4.78;;
46613;SDS011;32338;50.430;6.806;2023-08-31T04:01:44;8.57;;;5.05;;
46613;SDS011;32338;50.430;6.806;2023-08-31T04:04:11;9.48;;;5.10;;
46613;SDS011;32338;50.430;6.806;2023-08-31T04:06:38;9.73;;;5.03;;
46613;SDS011;32338;50.430;6.806;2023-08-31T04:09:04;7.32;;;4.68;;
46613;SDS011;32338;50.430;6.806;2023-08-31T04:11:31;8.40;;;5.38;;
46613;SDS011;32338;50.430;6.806;2023-08-31T04:13:58;6.25;;;5.30;;
46613;SDS011;32338;50.430;6.806;2023-08-31T04:16:27;9.32;;;4.80;;
46613;SDS011;32338;50.430;6.806;2023-08-31T04:18:54;7.03;;;5.03;;
46613;SDS011;32338;50.430;6.806;2023-08-31T04:21:21;7.28;;;4.97;;
46613;SDS011;32338;50.430;6.806;2023-08-31T04:23:48;7.40;;;5.35;;
46613;SDS011;32338;50.430;6.806;2023-08-31T04:26:14;6.97;;;5.22;;
46613;SDS011;32338;50.430;6.806;2023-08-31T04:28:42;8.43;;;4.72;;
46613;SDS011;32338;50.430;6.806;2023-08-31T04:31:09;5.72;;;5.18;;
46613;SDS011;32338;50.430;6.806;2023-08-31T04:33:38;7.53;;;5.30;;
46613;SDS011;32338;50.430;6.806;2023-08-31T04:36:05;6.80;;;5.32;;
46613;SDS011;32338;50.430;6.806;2023-08-31T04:38:31;10.13;;;5.28;;
46613;SDS011;32338;50.430;6.806;2023-08-31T04:40:58;6.28;;;5.00;;
46613;SDS011;32338;50.430;6.806;2023-08-31T04:43:25;7.25;;;5.10;;
46613;SDS011;32338;50.430;6.806;2023-08-31T04:45:52;7.28;;;4.90;;
46613;SDS011;32338;50.430;6.806;2023-08-31T04:48:19;8.05;;;4.68;;
46613;SDS011;32338;50.430;6.806;2023-08-31T04:50:46;6.90;;;4.90;;
46613;SDS011;32338;50.430;6.806;2023-08-31T04:53:13;9.38;;;4.55;;
46613;SDS011;32338;50.430;6.806;2023-08-31T04:55:40;5.18;;;4.55;;
46613;SDS011;32338;50.430;6.806;2023-08-31T04:58:06;8.65;;;4.63;;
46613;SDS011;32338;50.430;6.806;2023-08-31T05:00:33;5.40;;;4.18;;
46613;SDS011;32338;50.430;6.806;2023-08-31T05:02:59;9.55;;;4.45;;
46613;SDS011;32338;50.430;6.806;2023-08-31T05:05:26;7.13;;;4.25;;
46613;SDS011;32338;50.430;6.806;2023-08-31T05:07:54;11.93;;;4.05;;
46613;SDS011;32338;50.430;6.806;2023-08-31T05:10:21;6.95;;;4.55;;
46613;SDS011;32338;50.430;6.806;2023-08-31T05:12:47;7.25;;;4.97;;
46613;SDS011;32338;50.430;6.806;2023-08-31T05:15:14;9.15;;;5.20;;
46613;SDS011;32338;50.430;6.806;2023-08-31T05:17:41;7.78;;;5.35;;
46613;SDS011;32338;50.430;6.806;2023-08-31T05:20:08;10.80;;;5.35;;
46613;SDS011;32338;50.430;6.806;2023-08-31T05:22:35;10.02;;;5.00;;
46613;SDS011;32338;50.430;6.806;2023-08-31T05:25:03;6.72;;;4.93;;
46613;SDS011;32338;50.430;6.806;2023-08-31T05:27:30;6.47;;;4.72;;
46613;SDS011;32338;50.430;6.806;2023-08-31T05:29:57;8.27;;;5.13;;
46613;SDS011;32338;50.430;6.806;2023-08-31T05:32:24;5.47;;;4.93;;
46613;SDS011;32338;50.430;6.806;2023-08-31T05:34:53;6.20;;;4.95;;
46613;SDS011;32338;50.430;6.806;2023-08-31T05:37:20;6.47;;;4.22;;
46613;SDS011;32338;50.430;6.806;2023-08-31T05:39:47;11.85;;;5.07;;
46613;SDS011;32338;50.430;6.806;2023-08-31T05:42:16;7.82;;;4.93;;
46613;SDS011;32338;50.430;6.806;2023-08-31T05:44:43;11.32;;;4.93;;
46613;SDS011;32338;50.430;6.806;2023-08-31T05:47:09;9.10;;;4.55;;
46613;SDS011;32338;50.430;6.806;2023-08-31T05:49:36;5.65;;;4.50;;
46613;SDS011;32338;50.430;6.806;2023-08-31T05:52:03;15.88;;;4.75;;
46613;SDS011;32338;50.430;6.806;2023-08-31T05:54:30;6.70;;;4.20;;
46613;SDS011;32338;50.430;6.806;2023-08-31T05:56:57;7.85;;;4.20;;
46613;SDS011;32338;50.430;6.806;2023-08-31T05:59:24;8.20;;;4.15;;
46613;SDS011;32338;50.430;6.806;2023-08-31T06:01:51;4.97;;;3.97;;
46613;SDS011;32338;50.430;6.806;2023-08-31T06:04:18;7.10;;;4.53;;
46613;SDS011;32338;50.430;6.806;2023-08-31T06:06:44;6.35;;;4.78;;
46613;SDS011;32338;50.430;6.806;2023-08-31T06:09:11;13.13;;;5.13;;
46613;SDS011;32338;50.430;6.806;2023-08-31T06:11:38;7.93;;;4.47;;
46613;SDS011;32338;50.430;6.806;2023-08-31T06:14:05;6.97;;;3.83;;
46613;SDS011;32338;50.430;6.806;2023-08-31T06:16:33;11.57;;;3.92;;
46613;SDS011;32338;50.430;6.806;2023-08-31T06:19:00;6.43;;;3.67;;
46613;SDS011;32338;50.430;6.806;2023-08-31T06:21:26;9.20;;;3.60;;
46613;SDS011;32338;50.430;6.806;2023-08-31T06:23:53;9.95;;;3.85;;
46613;SDS011;32338;50.430;6.806;2023-08-31T06:26:19;6.80;;;3.65;;
46613;SDS011;32338;50.430;6.806;2023-08-31T06:28:46;4.65;;;3.28;;
46613;SDS011;32338;50.430;6.806;2023-08-31T06:31:12;6.78;;;3.80;;
46613;SDS011;32338;50.430;6.806;2023-08-31T06:33:40;4.80;;;3.40;;
46613;SDS011;32338;50.430;6.806;2023-08-31T06:36:07;6.38;;;3.45;;
46613;SDS011;32338;50.430;6.806;2023-08-31T06:38:33;6.72;;;3.35;;
46613;SDS011;32338;50.430;6.806;2023-08-31T06:41:01;6.68;;;3.13;;
46613;SDS011;32338;50.430;6.806;2023-08-31T06:43:28;5.90;;;3.60;;
46613;SDS011;32338;50.430;6.806;2023-08-31T06:45:54;5.72;;;3.67;;
46613;SDS011;32338;50.430;6.806;2023-08-31T06:48:21;7.43;;;3.45;;
46613;SDS011;32338;50.430;6.806;2023-08-31T06:50:49;4.40;;;3.60;;
46613;SDS011;32338;50.430;6.806;2023-08-31T06:53:15;5.32;;;3.50;;
46613;SDS011;32338;50.430;6.806;2023-08-31T06:55:42;4.00;;;3.25;;
46613;SDS011;32338;50.430;6.806;2023-08-31T06:58:09;5.40;;;3.35;;
46613;SDS011;32338;50.430;6.806;2023-08-31T07:00:35;6.63;;;3.50;;
46613;SDS011;32338;50.430;6.806;2023-08-31T07:03:02;4.82;;;2.97;;
46613;SDS011;32338;50.430;6.806;2023-08-31T07:05:32;7.07;;;3.55;;
46613;SDS011;32338;50.430;6.806;2023-08-31T07:08:01;5.78;;;2.88;;
46613;SDS011;32338;50.430;6.806;2023-08-31T07:10:28;5.45;;;3.15;;
46613;SDS011;32338;50.430;6.806;2023-08-31T07:12:55;7.45;;;3.55;;
46613;SDS011;32338;50.430;6.806;2023-08-31T07:15:22;5.82;;;3.13;;
46613;SDS011;32338;50.430;6.806;2023-08-31T07:17:48;3.83;;;3.40;;
46613;SDS011;32338;50.430;6.806;2023-08-31T07:20:15;8.48;;;3.00;;
46613;SDS011;32338;50.430;6.806;2023-08-31T07:22:41;6.50;;;2.88;;
46613;SDS011;32338;50.430;6.806;2023-08-31T07:25:09;7.40;;;3.25;;
46613;SDS011;32338;50.430;6.806;2023-08-31T07:27:37;5.43;;;2.78;;
46613;SDS011;32338;50.430;6.806;2023-08-31T07:30:04;6.30;;;2.88;;
46613;SDS011;32338;50.430;6.806;2023-08-31T07:32:31;3.55;;;2.42;;
46613;SDS011;32338;50.430;6.806;2023-08-31T07:34:58;5.10;;;3.08;;
46613;SDS011;32338;50.430;6.806;2023-08-31T07:37:25;3.08;;;1.83;;
46613;SDS011;32338;50.430;6.806;2023-08-31T07:39:51;6.90;;;2.88;;
46613;SDS011;32338;50.430;6.806;2023-08-31T07:42:19;5.00;;;2.30;;
46613;SDS011;32338;50.430;6.806;2023-08-31T07:44:46;8.95;;;2.63;;
46613;SDS011;32338;50.430;6.806;2023-08-31T07:47:12;5.18;;;2.55;;
46613;SDS011;32338;50.430;6.806;2023-08-31T07:49:39;5.35;;;2.60;;
46613;SDS011;32338;50.430;6.806;2023-08-31T07:52:06;4.97;;;2.10;;
46613;SDS011;32338;50.430;6.806;2023-08-31T07:54:32;4.78;;;2.42;;
46613;SDS011;32338;50.430;6.806;2023-08-31T07:56:59;6.57;;;2.67;;
46613;SDS011;32338;50.430;6.806;2023-08-31T07:59:27;4.72;;;2.08;;
46613;SDS011;32338;50.430;6.806;2023-08-31T08:01:54;3.58;;;1.88;;
46613;SDS011;32338;50.430;6.806;2023-08-31T08:04:20;5.50;;;1.90;;
46613;SDS011;32338;50.430;6.806;2023-08-31T08:06:49;6.15;;;1.42;;
46613;SDS011;32338;50.430;6.806;2023-08-31T08:09:16;2.17;;;1.50;;
46613;SDS011;32338;50.430;6.806;2023-08-31T08:11:42;2.95;;;1.42;;
46613;SDS011;32338;50.430;6.806;2023-08-31T08:14:09;4.00;;;1.80;;
46613;SDS011;32338;50.430;6.806;2023-08-31T08:16:37;4.72;;;1.52;;
46613;SDS011;32338;50.430;6.806;2023-08-31T08:19:05;3.92;;;1.17;;
46613;SDS011;32338;50.430;6.806;2023-08-31T08:21:32;2.63;;;1.27;;
46613;SDS011;32338;50.430;6.806;2023-08-31T08:23:59;2.47;;;1.30;;
46613;SDS011;32338;50.430;6.806;2023-08-31T08:26:25;3.85;;;1.40;;
46613;SDS011;32338;50.430;6.806;2023-08-31T08:28:52;5.25;;;1.40;;
46613;SDS011;32338;50.430;6.806;2023-08-31T08:31:18;2.53;;;1.10;;
46613;SDS011;32338;50.430;6.806;2023-08-31T08:33:47;3.55;;;0.98;;
46613;SDS011;32338;50.430;6.806;2023-08-31T08:36:13;3.50;;;1.50;;
46613;SDS011;32338;50.430;6.806;2023-08-31T08:38:41;3.13;;;1.40;;
46613;SDS011;32338;50.430;6.806;2023-08-31T08:41:07;7.10;;;1.50;;
46613;SDS011;32338;50.430;6.806;2023-08-31T08:43:34;5.68;;;1.67;;
46613;SDS011;32338;50.430;6.806;2023-08-31T08:46:04;5.78;;;1.30;;
46613;SDS011;32338;50.430;6.806;2023-08-31T08:48:32;4.45;;;1.58;;
46613;SDS011;32338;50.430;6.806;2023-08-31T08:51:01;6.28;;;1.80;;
46613;SDS011;32338;50.430;6.806;2023-08-31T08:53:29;3.65;;;1.23;;
46613;SDS011;32338;50.430;6.806;2023-08-31T08:55:56;4.18;;;1.30;;
46613;SDS011;32338;50.430;6.806;2023-08-31T08:58:23;4.13;;;1.48;;
46613;SDS011;32338;50.430;6.806;2023-08-31T09:00:49;2.40;;;1.40;;
46613;SDS011;32338;50.430;6.806;2023-08-31T09:03:18;1.98;;;1.25;;
46613;SDS011;32338;50.430;6.806;2023-08-31T09:05:44;4.20;;;1.40;;
46613;SDS011;32338;50.430;6.806;2023-08-31T09:08:13;6.40;;;1.35;;
46613;SDS011;32338;50.430;6.806;2023-08-31T09:10:40;2.33;;;1.40;;
46613;SDS011;32338;50.430;6.806;2023-08-31T09:13:08;6.72;;;1.80;;
46613;SDS011;32338;50.430;6.806;2023-08-31T09:15:36;1.92;;;1.30;;
46613;SDS011;32338;50.430;6.806;2023-08-31T09:18:04;1.33;;;1.00;;
46613;SDS011;32338;50.430;6.806;2023-08-31T09:20:31;3.05;;;1.40;;
46613;SDS011;32338;50.430;6.806;2023-08-31T09:22:58;4.15;;;1.25;;
46613;SDS011;32338;50.430;6.806;2023-08-31T09:25:26;2.65;;;1.58;;
46613;SDS011;32338;50.430;6.806;2023-08-31T09:27:53;3.22;;;1.20;;
46613;SDS011;32338;50.430;6.806;2023-08-31T09:30:19;2.53;;;1.35;;
46613;SDS011;32338;50.430;6.806;2023-08-31T09:32:51;3.63;;;1.10;;
46613;SDS011;32338;50.430;6.806;2023-08-31T09:35:18;3.75;;;1.30;;
46613;SDS011;32338;50.430;6.806;2023-08-31T09:37:50;5.15;;;1.45;;
46613;SDS011;32338;50.430;6.806;2023-08-31T09:40:21;1.88;;;1.10;;
46613;SDS011;32338;50.430;6.806;2023-08-31T09:42:50;4.75;;;1.50;;
46613;SDS011;32338;50.430;6.806;2023-08-31T09:45:17;3.08;;;1.38;;
46613;SDS011;32338;50.430;6.806;2023-08-31T09:47:44;3.72;;;1.45;;
46613;SDS011;32338;50.430;6.806;2023-08-31T09:50:11;4.90;;;1.33;;
46613;SDS011;32338;50.430;6.806;2023-08-31T09:52:37;3.13;;;1.10;;
46613;SDS011;32338;50.430;6.806;2023-08-31T09:55:06;3.03;;;1.30;;
46613;SDS011;32338;50.430;6.806;2023-08-31T09:57:34;5.18;;;1.77;;
46613;SDS011;32338;50.430;6.806;2023-08-31T10:00:02;3.83;;;1.15;;
46613;SDS011;32338;50.430;6.806;2023-08-31T10:02:32;2.33;;;1.08;;
46613;SDS011;32338;50.430;6.806;2023-08-31T10:05:00;4.60;;;1.40;;
46613;SDS011;32338;50.430;6.806;2023-08-31T10:07:27;4.45;;;1.75;;
46613;SDS011;32338;50.430;6.806;2023-08-31T10:09:54;2.95;;;1.20;;
46613;SDS011;32338;50.430;6.806;2023-08-31T10:12:23;7.03;;;1.50;;
46613;SDS011;32338;50.430;6.806;2023-08-31T10:14:50;2.45;;;1.40;;
46613;SDS011;32338;50.430;6.806;2023-08-31T10:17:19;4.43;;;1.02;;
46613;SDS011;32338;50.430;6.806;2023-08-31T10:19:46;1.98;;;0.90;;
46613;SDS011;32338;50.430;6.806;2023-08-31T10:22:13;4.28;;;0.90;;
46613;SDS011;32338;50.430;6.806;2023-08-31T10:24:58;4.18;;;1.38;;
46613;SDS011;32338;50.430;6.806;2023-08-31T10:27:25;2.20;;;1.27;;
46613;SDS011;32338;50.430;6.806;2023-08-31T10:29:51;6.10;;;1.35;;
46613;SDS011;32338;50.430;6.806;2023-08-31T10:32:19;3.85;;;1.13;;
46613;SDS011;32338;50.430;6.806;2023-08-31T10:37:32;3.30;;;1.13;;
46613;SDS011;32338;50.430;6.806;2023-08-31T10:40:08;3.42;;;1.15;;
46613;SDS011;32338;50.430;6.806;2023-08-31T10:42:43;3.58;;;1.08;;
46613;SDS011;32338;50.430;6.806;2023-08-31T10:45:12;3.23;;;1.03;;
46613;SDS011;32338;50.430;6.806;2023-08-31T10:47:41;5.80;;;1.33;;
46613;SDS011;32338;50.430;6.806;2023-08-31T10:50:18;4.13;;;1.13;;
46613;SDS011;32338;50.430;6.806;2023-08-31T10:52:46;3.92;;;1.30;;
46613;SDS011;32338;50.430;6.806;2023-08-31T10:55:13;3.15;;;1.10;;
46613;SDS011;32338;50.430;6.806;2023-08-31T10:57:40;2.22;;;0.90;;
46613;SDS011;32338;50.430;6.806;2023-08-31T11:00:07;2.97;;;1.10;;
46613;SDS011;32338;50.430;6.806;2023-08-31T11:02:36;3.22;;;0.90;;
46613;SDS011;32338;50.430;6.806;2023-08-31T11:05:09;2.20;;;1.10;;
46613;SDS011;32338;50.430;6.806;2023-08-31T11:07:36;2.38;;;1.00;;
46613;SDS011;32338;50.430;6.806;2023-08-31T11:10:13;2.45;;;0.98;;
46613;SDS011;32338;50.430;6.806;2023-08-31T11:12:43;6.80;;;1.35;;
46613;SDS011;32338;50.430;6.806;2023-08-31T11:15:11;2.72;;;1.10;;
46613;SDS011;32338;50.430;6.806;2023-08-31T11:17:39;6.30;;;1.13;;
46613;SDS011;32338;50.430;6.806;2023-08-31T11:20:07;2.60;;;1.10;;
46613;SDS011;32338;50.430;6.806;2023-08-31T11:22:39;3.78;;;1.20;;
46613;SDS011;32338;50.430;6.806;2023-08-31T11:25:08;5.72;;;1.15;;
46613;SDS011;32338;50.430;6.806;2023-08-31T11:27:35;5.70;;;1.10;;
46613;SDS011;32338;50.430;6.806;2023-08-31T11:30:02;3.00;;;1.20;;
46613;SDS011;32338;50.430;6.806;2023-08-31T11:32:29;3.40;;;1.15;;
46613;SDS011;32338;50.430;6.806;2023-08-31T11:34:55;4.80;;;1.15;;
46613;SDS011;32338;50.430;6.806;2023-08-31T11:37:23;5.30;;;1.55;;
46613;SDS011;32338;50.430;6.806;2023-08-31T11:39:52;1.80;;;0.90;;
46613;SDS011;32338;50.430;6.806;2023-08-31T11:42:20;4.50;;;1.20;;
46613;SDS011;32338;50.430;6.806;2023-08-31T11:44:47;3.35;;;1.00;;
46613;SDS011;32338;50.430;6.806;2023-08-31T11:47:15;3.60;;;1.13;;
46613;SDS011;32338;50.430;6.806;2023-08-31T11:49:42;2.22;;;1.23;;
46613;SDS011;32338;50.430;6.806;2023-08-31T11:52:09;3.22;;;1.05;;
46613;SDS011;32338;50.430;6.806;2023-08-31T11:54:39;3.55;;;1.02;;
46613;SDS011;32338;50.430;6.806;2023-08-31T11:57:06;3.28;;;1.20;;
46613;SDS011;32338;50.430;6.806;2023-08-31T11:59:34;3.38;;;1.10;;
46613;SDS011;32338;50.430;6.806;2023-08-31T12:02:01;2.35;;;1.00;;
46613;SDS011;32338;50.430;6.806;2023-08-31T12:04:28;2.03;;;1.08;;
46613;SDS011;32338;50.430;6.806;2023-08-31T12:07:00;4.60;;;1.10;;
46613;SDS011;32338;50.430;6.806;2023-08-31T12:09:29;2.55;;;1.00;;
46613;SDS011;32338;50.430;6.806;2023-08-31T12:11:58;3.50;;;1.67;;
46613;SDS011;32338;50.430;6.806;2023-08-31T12:14:25;2.65;;;1.00;;
46613;SDS011;32338;50.430;6.806;2023-08-31T12:16:53;5.70;;;1.10;;
46613;SDS011;32338;50.430;6.806;2023-08-31T12:19:28;2.92;;;1.45;;
46613;SDS011;32338;50.430;6.806;2023-08-31T12:21:54;2.83;;;1.13;;
46613;SDS011;32338;50.430;6.806;2023-08-31T12:24:21;1.98;;;1.10;;
46613;SDS011;32338;50.430;6.806;2023-08-31T12:26:48;1.80;;;1.00;;
46613;SDS011;32338;50.430;6.806;2023-08-31T12:29:16;3.88;;;0.85;;
46613;SDS011;32338;50.430;6.806;2023-08-31T12:31:43;2.33;;;1.35;;
46613;SDS011;32338;50.430;6.806;2023-08-31T12:34:10;4.78;;;0.90;;
46613;SDS011;32338;50.430;6.806;2023-08-31T12:36:36;1.52;;;0.98;;
46613;SDS011;32338;50.430;6.806;2023-08-31T12:39:05;3.08;;;1.00;;
46613;SDS011;32338;50.430;6.806;2023-08-31T12:41:34;2.65;;;0.93;;
46613;SDS011;32338;50.430;6.806;2023-08-31T12:44:01;3.67;;;1.17;;
46613;SDS011;32338;50.430;6.806;2023-08-31T12:46:31;2.63;;;1.00;;
46613;SDS011;32338;50.430;6.806;2023-08-31T12:48:58;2.70;;;1.00;;
46613;SDS011;32338;50.430;6.806;2023-08-31T12:51:25;1.70;;;1.05;;
46613;SDS011;32338;50.430;6.806;2023-08-31T12:53:52;1.40;;;0.70;;
46613;SDS011;32338;50.430;6.806;2023-08-31T12:56:18;3.05;;;1.00;;
46613;SDS011;32338;50.430;6.806;2023-08-31T12:58:48;1.50;;;0.90;;
46613;SDS011;32338;50.430;6.806;2023-08-31T13:01:15;3.17;;;1.40;;
46613;SDS011;32338;50.430;6.806;2023-08-31T13:03:43;1.42;;;0.93;;
46613;SDS011;32338;50.430;6.806;2023-08-31T13:06:09;2.00;;;1.10;;
46613;SDS011;32338;50.430;6.806;2023-08-31T13:08:36;3.33;;;0.90;;
46613;SDS011;32338;50.430;6.806;2023-08-31T13:11:03;2.10;;;0.82;;
46613;SDS011;32338;50.430;6.806;2023-08-31T13:13:30;1.70;;;0.75;;
46613;SDS011;32338;50.430;6.806;2023-08-31T13:15:57;4.50;;;1.20;;
46613;SDS011;32338;50.430;6.806;2023-08-31T13:18:24;5.05;;;1.10;;
46613;SDS011;32338;50.430;6.806;2023-08-31T13:20:52;3.05;;;1.00;;
46613;SDS011;32338;50.430;6.806;2023-08-31T13:23:19;2.63;;;1.05;;
46613;SDS011;32338;50.430;6.806;2023-08-31T13:25:46;1.65;;;0.80;;
46613;SDS011;32338;50.430;6.806;2023-08-31T13:28:13;1.60;;;0.90;;
46613;SDS011;32338;50.430;6.806;2023-08-31T13:30:40;2.90;;;0.90;;
46613;SDS011;32338;50.430;6.806;2023-08-31T13:33:07;1.92;;;0.80;;
46613;SDS011;32338;50.430;6.806;2023-08-31T13:35:34;5.03;;;1.38;;
46613;SDS011;32338;50.430;6.806;2023-08-31T13:38:02;1.92;;;0.85;;
46613;SDS011;32338;50.430;6.806;2023-08-31T13:40:29;2.65;;;1.00;;
46613;SDS011;32338;50.430;6.806;2023-08-31T13:42:56;2.13;;;0.80;;
46613;SDS011;32338;50.430;6.806;2023-08-31T13:45:26;7.00;;;1.35;;
46613;SDS011;32338;50.430;6.806;2023-08-31T13:47:52;5.13;;;1.25;;
46613;SDS011;32338;50.430;6.806;2023-08-31T13:50:19;4.43;;;1.20;;
46613;SDS011;32338;50.430;6.806;2023-08-31T13:52:46;3.60;;;1.27;;
46613;SDS011;32338;50.430;6.806;2023-08-31T13:55:13;4.90;;;1.00;;
46613;SDS011;32338;50.430;6.806;2023-08-31T14:00:07;3.20;;;1.00;;
46613;SDS011;32338;50.430;6.806;2023-08-31T14:02:35;3.85;;;0.82;;
46613;SDS011;32338;50.430;6.806;2023-08-31T14:05:02;2.90;;;1.05;;
46613;SDS011;32338;50.430;6.806;2023-08-31T14:07:29;5.93;;;1.35;;
46613;SDS011;32338;50.430;6.806;2023-08-31T14:09:56;3.67;;;1.20;;
46613;SDS011;32338;50.430;6.806;2023-08-31T14:12:24;4.25;;;1.15;;
46613;SDS011;32338;50.430;6.806;2023-08-31T14:14:50;4.03;;;1.00;;
46613;SDS011;32338;50.430;6.806;2023-08-31T14:17:17;3.97;;;1.23;;
46613;SDS011;32338;50.430;6.806;2023-08-31T14:19:44;3.95;;;1.20;;
46613;SDS011;32338;50.430;6.806;2023-08-31T14:22:11;3.70;;;1.05;;
46613;SDS011;32338;50.430;6.806;2023-08-31T14:24:37;2.35;;;1.30;;
46613;SDS011;32338;50.430;6.806;2023-08-31T14:27:04;3.28;;;1.00;;
46613;SDS011;32338;50.430;6.806;2023-08-31T14:29:32;5.60;;;1.00;;
46613;SDS011;32338;50.430;6.806;2023-08-31T14:32:00;5.07;;;1.30;;
46613;SDS011;32338;50.430;6.806;2023-08-31T14:34:27;4.50;;;1.30;;
46613;SDS011;32338;50.430;6.806;2023-08-31T14:36:53;4.53;;;1.48;;
46613;SDS011;32338;50.430;6.806;2023-08-31T14:39:22;2.63;;;1.30;;
46613;SDS011;32338;50.430;6.806;2023-08-31T14:41:50;3.80;;;1.00;;
46613;SDS011;32338;50.430;6.806;2023-08-31T14:44:16;4.20;;;1.38;;
46613;SDS011;32338;50.430;6.806;2023-08-31T14:46:44;3.10;;;1.30;;
46613;SDS011;32338;50.430;6.806;2023-08-31T14:49:11;4.20;;;1.30;;
46613;SDS011;32338;50.430;6.806;2023-08-31T14:51:37;3.78;;;1.02;;
46613;SDS011;32338;50.430;6.806;2023-08-31T14:54:04;8.00;;;1.60;;